CW7923 Weather Reports


Display with metric or nautical units.
time (UTC)temp
F
wind
direction
speed
MPH
gust
MPH
rain 1hr
in
rain 24hr
in
rain mn
in
humidity
%
barometer
mb
20210929013313 58 102 0.0 0.0 0.00 0.06 0.06 88 1005.9
20210929012252 59 88 0.0 0.0 0.00 0.06 0.06 87 1005.7
20210929011255 59 96 0.0 0.0 0.00 0.06 0.06 88 1005.7
20210929010232 59 194 0.0 0.0 0.00 0.06 0.06 87 1005.5
20210929005158 60 152 0.0 0.0 0.00 0.06 0.06 85 1005.4
20210929004140 60 127 0.0 0.0 0.00 0.06 0.06 84 1005.2
20210929003126 60 138 0.0 0.0 0.00 0.06 0.06 83 1005.1
20210929002122 61 120 0.0 1.0 0.00 0.06 0.06 82 1005.0
20210929001139 61 93 0.0 0.0 0.00 0.06 0.06 82 1004.9
20210929000129 61 302 0.0 0.0 0.00 0.06 0.06 83 1004.8
20210928235145 60 296 1.0 4.0 0.04 0.04 0.05 82 1004.9
20210928234155 60 26 3.0 13.0 0.10 0.04 0.05 82 1004.9
20210928233137 61 291 6.0 13.0 0.28 0.04 0.04 79 1005.0
20210928232201 65 287 3.0 11.0 0.00 0.00 0.00 68 1005.1
20210928231131 67 172 3.0 9.0 0.00 0.00 0.00 62 1004.2
20210928230119 68 188 3.0 9.0 0.00 0.00 0.00 60 1004.1
20210928225057 69 205 4.0 9.0 0.00 0.00 0.00 56 1004.1
20210928224101 68 190 5.0 13.0 0.00 0.00 0.00 58 1003.9
20210928223055 69 217 6.0 13.0 0.00 0.00 0.00 58 1003.9
20210928222026 70 167 2.0 7.0 0.00 0.00 0.00 53 1004.2
20210928221048 71 229 1.0 6.0 0.00 0.00 0.00 51 1004.1
20210928220035 71 173 2.0 7.0 0.00 0.00 0.00 50 1003.9
20210928215022 72 205 2.0 10.0 0.00 0.00 0.00 51 1003.8
20210928214029 72 189 2.0 10.0 0.00 0.00 0.00 51 1003.7
20210928213007 73 128 2.0 7.0 0.00 0.00 0.00 51 1003.8
20210928212015 72 171 3.0 11.0 0.00 0.00 0.00 50 1003.9
20210928210949 73 154 3.0 11.0 0.00 0.00 0.00 50 1004.1
20210928210005 73 186 2.0 8.0 0.00 0.00 0.00 51 1004.2
20210928205005 71 121 3.0 8.0 0.00 0.00 0.00 52 1004.6
20210928204007 72 169 2.0 12.0 0.00 0.00 0.00 52 1004.7
20210928203025 71 153 3.0 12.0 0.00 0.00 0.00 51 1004.9
20210928202013 71 130 2.0 11.0 0.00 0.00 0.00 50 1005.2
20210928201018 70 193 3.0 11.0 0.00 0.00 0.00 51 1005.4
20210928195948 71 184 2.0 5.0 0.00 0.00 0.00 52 1005.5
20210928194925 71 117 1.0 5.0 0.00 0.00 0.00 50 1005.7
20210928193922 70 142 1.0 5.0 0.00 0.00 0.00 49 1006.0
20210928192926 69 175 2.0 7.0 0.00 0.00 0.00 54 1006.1
20210928191906 67 246 3.0 8.0 0.00 0.00 0.00 54 1006.2
20210928190913 69 282 3.0 8.0 0.00 0.00 0.00 55 1006.5
20210928185909 71 279 2.0 7.0 0.00 0.00 0.00 45 1006.5
20210928184922 72 223 1.0 7.0 0.00 0.00 0.00 44 1006.5
20210928183906 73 220 2.0 7.0 0.00 0.00 0.00 44 1006.6
20210928182931 72 145 3.0 7.0 0.00 0.00 0.00 42 1006.6
20210928181914 70 235 2.0 6.0 0.00 0.00 0.00 44 1006.7
20210928180909 69 171 1.0 4.0 0.00 0.00 0.00 49 1006.8
20210928175909 69 165 1.0 10.0 0.00 0.00 0.00 51 1006.9
20210928174852 69 136 1.0 10.0 0.00 0.00 0.00 53 1007.1
20210928173909 70 98 1.0 8.0 0.00 0.00 0.00 52 1007.2
20210928172932 70 65 2.0 8.0 0.00 0.00 0.00 52 1007.3
20210928171920 71 181 2.0 7.0 0.00 0.00 0.00 51 1007.5
20210928170856 69 96 2.0 7.0 0.00 0.00 0.00 55 1007.7
20210928165829 68 117 2.0 8.0 0.00 0.00 0.00 61 1007.8
20210928164807 66 68 3.0 8.0 0.00 0.00 0.00 62 1008.0
20210928163758 66 101 2.0 7.0 0.00 0.00 0.00 62 1008.2
20210928162752 65 87 2.0 7.0 0.00 0.00 0.00 64 1008.3
20210928161756 64 166 1.0 6.0 0.00 0.00 0.00 66 1008.2
20210928160734 65 92 0.0 4.0 0.00 0.00 0.00 65 1008.3
20210928155738 64 130 0.0 6.0 0.00 0.00 0.00 66 1008.3
20210928154710 63 190 0.0 6.0 0.00 0.00 0.00 69 1008.3
20210928153702 62 109 1.0 4.0 0.00 0.00 0.00 69 1008.2
20210928152648 61 138 0.0 2.0 0.00 0.00 0.00 72 1008.3
20210928151703 61 100 0.0 3.0 0.00 0.00 0.00 73 1008.3
20210928150633 60 148 0.0 0.0 0.00 0.00 0.00 73 1008.1
20210928145630 60 128 0.0 2.0 0.00 0.00 0.00 73 1008.0
20210928144615 60 172 0.0 1.0 0.00 0.00 0.00 75 1008.0
20210928143551 59 130 0.0 1.0 0.00 0.00 0.00 76 1008.0
20210928142539 59 151 0.0 0.0 0.00 0.00 0.00 76 1008.0
20210928141514 58 161 0.0 1.0 0.00 0.00 0.00 76 1008.0
20210928140442 58 111 0.0 0.0 0.00 0.00 0.00 76 1008.0
20210928135449 58 174 0.0 0.0 0.00 0.00 0.00 77 1008.1
20210928134422 57 261 0.0 0.0 0.00 0.00 0.00 77 1008.0
20210928133442 57 261 0.0 0.0 0.00 0.00 0.00 77 1008.0
20210928132507 57 261 0.0 0.0 0.00 0.00 0.00 77 1008.0
20210928131510 57 261 0.0 0.0 0.00 0.00 0.00 78 1008.0
20210928130500 57 260 0.0 0.0 0.00 0.00 0.00 76 1008.0
20210928125429 57 257 0.0 0.0 0.00 0.00 0.00 76 1008.1
20210928124443 57 257 0.0 0.0 0.00 0.00 0.00 75 1008.0
20210928123428 57 257 0.0 0.0 0.00 0.00 0.00 76 1007.9
20210928122415 57 257 0.0 0.0 0.00 0.00 0.00 76 1007.9
20210928121348 57 257 1.0 2.0 0.00 0.00 0.00 77 1008.0
20210928120350 57 261 0.0 2.0 0.00 0.00 0.00 77 1008.1
20210928115320 57 266 0.0 2.0 0.00 0.00 0.00 76 1008.0
20210928114342 57 250 0.0 0.0 0.00 0.00 0.00 73 1008.0
20210928113357 57 257 0.0 1.0 0.00 0.00 0.00 73 1007.9
20210928112330 57 250 1.0 2.0 0.00 0.00 0.00 74 1008.0
20210928111321 57 255 0.0 2.0 0.00 0.00 0.00 74 1008.0
20210928110326 57 246 0.0 0.0 0.00 0.00 0.00 74 1008.0
20210928105344 57 244 0.0 0.0 0.00 0.00 0.00 73 1008.0
20210928104318 57 244 0.0 0.0 0.00 0.00 0.00 73 1008.0
20210928103329 57 244 0.0 0.0 0.00 0.00 0.00 72 1008.0
20210928102337 57 257 1.0 3.0 0.00 0.00 0.00 71 1008.2
20210928101355 57 273 2.0 4.0 0.00 0.00 0.00 70 1008.2
20210928100407 57 282 2.0 4.0 0.00 0.00 0.00 70 1008.1
20210928095359 57 249 0.0 3.0 0.00 0.00 0.00 68 1008.2
20210928094419 58 195 0.0 0.0 0.00 0.00 0.00 68 1008.4
20210928093436 58 255 0.0 0.0 0.00 0.00 0.00 68 1008.2
20210928092404 58 249 0.0 1.0 0.00 0.00 0.00 67 1008.2
20210928091334 58 269 0.0 1.0 0.00 0.00 0.00 67 1008.3
20210928090355 59 176 0.0 0.0 0.00 0.00 0.00 67 1008.3
20210928085354 59 176 0.0 0.0 0.00 0.00 0.00 67 1008.5
20210928084416 59 176 0.0 0.0 0.00 0.00 0.00 67 1008.6
20210928083407 59 176 0.0 0.0 0.00 0.00 0.00 67 1008.6
20210928082427 59 176 0.0 0.0 0.00 0.00 0.00 67 1008.7
20210928081432 59 176 0.0 0.0 0.00 0.00 0.00 67 1008.8
20210928080456 59 176 0.0 0.0 0.00 0.00 0.00 67 1008.8
20210928075437 59 176 0.0 0.0 0.00 0.00 0.00 67 1008.8
20210928074431 59 176 0.0 0.0 0.00 0.00 0.00 67 1008.8
20210928073443 59 176 0.0 0.0 0.00 0.00 0.00 67 1009.0
20210928072411 59 176 0.0 0.0 0.00 0.00 0.00 66 1009.0
20210928071347 59 176 0.0 0.0 0.00 0.00 0.00 66 1009.1
20210928070359 59 176 0.0 0.0 0.00 0.00 0.00 66 1009.1
20210928065413 59 176 0.0 0.0 0.00 0.00 0.00 66 1009.2
20210928064346 59 176 0.0 0.0 0.00 0.00 0.00 66 1009.3
20210928063317 60 176 0.0 0.0 0.00 0.00 0.00 66 1009.2
20210928062321 60 176 0.0 0.0 0.00 0.00 0.00 65 1009.3
20210928061315 60 176 0.0 0.0 0.00 0.00 0.00 64 1009.3
20210928060313 60 176 0.0 0.0 0.00 0.00 0.00 64 1009.2
20210928055239 60 176 0.0 0.0 0.00 0.00 0.00 63 1009.3
20210928054217 61 176 0.0 0.0 0.00 0.00 0.00 62 1009.3
20210928053157 61 176 0.0 0.0 0.00 0.00 0.00 61 1009.3
20210928052149 62 176 0.0 0.0 0.00 0.00 0.00 60 1009.4
20210928051148 62 176 0.0 0.0 0.00 0.00 0.00 60 1009.5
20210928050212 62 176 0.0 0.0 0.00 0.00 0.00 60 1009.5
20210928045234 63 176 0.0 0.0 0.00 0.00 0.00 60 1009.5
20210928044207 63 176 0.0 0.0 0.00 0.00 0.00 59 1009.5
20210928043156 63 176 0.0 0.0 0.00 0.00 0.00 58 1009.5
20210928042150 64 176 0.0 0.0 0.00 0.00 0.00 57 1009.5
20210928041145 64 176 0.0 0.0 0.00 0.00 0.00 58 1009.4
20210928040153 64 176 0.0 0.0 0.00 0.00 0.00 57 1009.4
20210928035216 64 176 0.0 0.0 0.00 0.00 0.00 55 1009.5
20210928034216 65 176 0.0 0.0 0.00 0.00 0.00 54 1009.5
20210928033240 65 176 0.0 0.0 0.00 0.00 0.00 53 1009.5
20210928032225 66 176 0.0 0.0 0.00 0.00 0.00 53 1009.6
20210928031159 66 176 0.0 0.0 0.00 0.00 0.00 52 1009.7
20210928030223 66 176 0.0 0.0 0.00 0.00 0.00 52 1009.6
20210928025217 66 176 0.0 0.0 0.00 0.00 0.00 52 1009.7
20210928024230 67 176 0.0 0.0 0.00 0.00 0.00 52 1009.6
20210928023223 67 176 0.0 0.0 0.00 0.00 0.00 53 1009.5
20210928022237 66 176 0.0 0.0 0.00 0.00 0.00 53 1009.4
20210928021228 66 176 0.0 0.0 0.00 0.00 0.00 52 1009.2
20210928020156 66 177 0.0 0.0 0.00 0.00 0.00 52 1009.1
20210928015205 66 183 0.0 5.0 0.00 0.00 0.00 51 1008.8
20210928014224 66 222 0.0 0.0 0.00 0.00 0.00 51 1008.6